Time;durP1;ratioP1;P1;durP2;ratioP2;P2;SDS_P1;SDS_P2;PMS_P1;PMS_P2;Temp;Humidity;BMP_temperature;BMP_pressure;BME280_temperature;BME280_humidity;BME280_pressure;Samples;Min_cycle;Max_cycle;Signal;HPM_P1;HPM_P2
2023/10/22 00:00:13;;;;;;;0.60;0.60;;;;;;;;;;10066539;28;20371;-71
2023/10/22 00:05:06;;;;;;;0.70;0.70;;;;;;;;;;10073856;28;20080;-71
2023/10/22 00:09:58;;;;;;;0.52;0.52;;;;;;;;;;10074815;28;20642;-71
2023/10/22 00:14:50;;;;;;;0.60;0.60;;;;;;;;;;10067670;28;20116;-70
2023/10/22 00:19:42;;;;;;;0.50;0.50;;;;;;;;;;10075946;28;20079;-70
2023/10/22 00:24:34;;;;;;;0.50;0.50;;;;;;;;;;10074878;28;20042;-72
2023/10/22 00:29:27;;;;;;;0.60;0.60;;;;;;;;;;10071552;28;20819;-72
2023/10/22 00:34:19;;;;;;;0.50;0.50;;;;;;;;;;10066266;28;20050;-71
2023/10/22 00:39:11;;;;;;;0.60;0.60;;;;;;;;;;10065140;28;20136;-72
2023/10/22 00:44:03;;;;;;;0.50;0.50;;;;;;;;;;10050932;28;20073;-72
2023/10/22 00:48:55;;;;;;;0.60;0.60;;;;;;;;;;10060894;28;20049;-72
2023/10/22 00:53:47;;;;;;;0.50;0.50;;;;;;;;;;10063552;28;20033;-73
2023/10/22 00:58:39;;;;;;;0.50;0.50;;;;;;;;;;10064243;28;20069;-72
2023/10/22 01:03:31;;;;;;;0.50;0.50;;;;;;;;;;10063553;28;20072;-72
2023/10/22 01:08:23;;;;;;;0.60;0.60;;;;;;;;;;10064312;28;20099;-72
2023/10/22 01:13:15;;;;;;;0.60;0.60;;;;;;;;;;10026023;28;20097;-73
2023/10/22 01:18:08;;;;;;;0.60;0.60;;;;;;;;;;10027450;28;20099;-72
2023/10/22 01:23:01;;;;;;;0.50;0.50;;;;;;;;;;10027153;28;20038;-72
2023/10/22 01:27:53;;;;;;;0.50;0.50;;;;;;;;;;10027256;28;20081;-71
2023/10/22 01:32:44;;;;;;;0.50;0.50;;;;;;;;;;10028035;28;20044;-72
2023/10/22 01:37:36;;;;;;;0.60;0.60;;;;;;;;;;10027931;28;20420;-72
2023/10/22 01:42:28;;;;;;;0.50;0.50;;;;;;;;;;10027828;28;20464;-72
2023/10/22 01:47:20;;;;;;;0.60;0.60;;;;;;;;;;10026512;28;20504;-72
2023/10/22 01:52:13;;;;;;;0.50;0.50;;;;;;;;;;10024797;28;20353;-73
2023/10/22 01:57:04;;;;;;;0.50;0.50;;;;;;;;;;10028257;28;20054;-73
2023/10/22 02:01:56;;;;;;;0.50;0.50;;;;;;;;;;10040913;28;20061;-72
2023/10/22 02:06:48;;;;;;;0.50;0.50;;;;;;;;;;10027007;28;20057;-71
2023/10/22 02:11:40;;;;;;;0.50;0.50;;;;;;;;;;10025880;28;20072;-72
2023/10/22 02:16:33;;;;;;;0.60;0.60;;;;;;;;;;10026218;28;20092;-72
2023/10/22 02:21:26;;;;;;;0.50;0.50;;;;;;;;;;10025465;28;20128;-73
2023/10/22 02:26:19;;;;;;;0.50;0.50;;;;;;;;;;10026323;28;20044;-72
2023/10/22 02:31:11;;;;;;;0.50;0.50;;;;;;;;;;10040356;28;20441;-72
2023/10/22 02:36:04;;;;;;;0.50;0.50;;;;;;;;;;10048274;28;20049;-72
2023/10/22 02:40:56;;;;;;;0.50;0.50;;;;;;;;;;10033344;28;20042;-72
2023/10/22 02:45:51;;;;;;;0.60;0.60;;;;;;;;;;10032209;28;20050;-72
2023/10/22 02:50:43;;;;;;;0.50;0.50;;;;;;;;;;10033618;28;20041;-72
2023/10/22 02:55:35;;;;;;;0.55;0.55;;;;;;;;;;10047735;28;20069;-72
2023/10/22 03:00:27;;;;;;;0.57;0.57;;;;;;;;;;10032798;28;20440;-71
2023/10/22 03:05:34;;;;;;;0.80;0.80;;;;;;;;;;10031081;28;20472;-71
2023/10/22 03:10:26;;;;;;;0.77;0.77;;;;;;;;;;10032985;28;20030;-72
2023/10/22 03:15:18;;;;;;;1.00;1.00;;;;;;;;;;10035173;28;20050;-71
2023/10/22 03:20:10;;;;;;;2.25;2.15;;;;;;;;;;10030110;28;20068;-72
2023/10/22 03:25:07;;;;;;;1.25;1.25;;;;;;;;;;10031725;28;20534;-71
2023/10/22 03:30:00;;;;;;;0.50;0.50;;;;;;;;;;10033459;28;20049;-72
2023/10/22 03:34:51;;;;;;;0.82;0.82;;;;;;;;;;10030855;28;20156;-72
2023/10/22 03:39:43;;;;;;;0.68;0.68;;;;;;;;;;10032145;28;20038;-72
2023/10/22 03:44:35;;;;;;;1.10;1.10;;;;;;;;;;10044878;28;20053;-71
2023/10/22 03:49:27;;;;;;;0.70;0.70;;;;;;;;;;10031339;28;20421;-72
2023/10/22 03:54:19;;;;;;;0.60;0.60;;;;;;;;;;10030266;28;20038;-71
2023/10/22 03:59:11;;;;;;;0.60;0.60;;;;;;;;;;10036145;28;20037;-72
2023/10/22 04:04:03;;;;;;;0.55;0.55;;;;;;;;;;10032388;28;20050;-72
2023/10/22 04:08:55;;;;;;;0.60;0.60;;;;;;;;;;10030381;28;20104;-72
2023/10/22 04:13:47;;;;;;;0.50;0.50;;;;;;;;;;10028057;28;20045;-71
2023/10/22 04:18:39;;;;;;;0.75;0.75;;;;;;;;;;10028731;28;20048;-72
2023/10/22 04:23:31;;;;;;;0.60;0.60;;;;;;;;;;10031120;28;20042;-71
2023/10/22 04:28:24;;;;;;;0.57;0.57;;;;;;;;;;10030076;28;20136;-72
2023/10/22 04:33:16;;;;;;;0.50;0.50;;;;;;;;;;10035334;28;20391;-72
2023/10/22 04:38:08;;;;;;;0.60;0.60;;;;;;;;;;10029338;28;20132;-72
2023/10/22 04:42:59;;;;;;;0.60;0.60;;;;;;;;;;10028297;28;20125;-71
2023/10/22 04:47:51;;;;;;;0.57;0.57;;;;;;;;;;10027376;28;20141;-72
2023/10/22 04:52:43;;;;;;;0.50;0.50;;;;;;;;;;10028303;28;20095;-72
2023/10/22 04:57:35;;;;;;;0.50;0.50;;;;;;;;;;10028129;28;20048;-72
2023/10/22 05:02:27;;;;;;;0.60;0.60;;;;;;;;;;10027820;28;20034;-71
2023/10/22 05:07:19;;;;;;;0.50;0.50;;;;;;;;;;10028473;28;20435;-71
2023/10/22 05:12:10;;;;;;;0.70;0.70;;;;;;;;;;10027112;28;20050;-72
2023/10/22 05:17:04;;;;;;;0.60;0.60;;;;;;;;;;10027112;28;20077;-72
2023/10/22 05:21:56;;;;;;;0.50;0.50;;;;;;;;;;10027264;28;20054;-72
2023/10/22 05:26:48;;;;;;;0.50;0.50;;;;;;;;;;10027850;28;20054;-71
2023/10/22 05:31:40;;;;;;;0.50;0.50;;;;;;;;;;10028430;28;20042;-70
2023/10/22 05:36:32;;;;;;;0.63;0.63;;;;;;;;;;10027387;28;20537;-72
2023/10/22 05:41:28;;;;;;;0.50;0.50;;;;;;;;;;10049427;28;20100;-71
2023/10/22 05:46:21;;;;;;;0.50;0.50;;;;;;;;;;10026975;28;20045;-72
2023/10/22 05:51:13;;;;;;;0.50;0.50;;;;;;;;;;10026375;28;20380;-70
2023/10/22 05:56:05;;;;;;;1.55;1.35;;;;;;;;;;10025929;28;20054;-69
2023/10/22 06:00:57;;;;;;;0.60;0.60;;;;;;;;;;10026508;28;20034;-69
2023/10/22 06:05:49;;;;;;;0.50;0.50;;;;;;;;;;10025292;28;20064;-68
2023/10/22 06:10:41;;;;;;;0.60;0.60;;;;;;;;;;10034380;28;20420;-69
2023/10/22 06:15:38;;;;;;;0.60;0.60;;;;;;;;;;10032863;28;20103;-68
2023/10/22 06:20:31;;;;;;;0.60;0.60;;;;;;;;;;10053598;28;20460;-71
2023/10/22 06:25:23;;;;;;;1.73;1.63;;;;;;;;;;10068457;28;20053;-70
2023/10/22 06:30:15;;;;;;;0.60;0.60;;;;;;;;;;10067061;28;20515;-72
2023/10/22 06:35:07;;;;;;;0.60;0.60;;;;;;;;;;10066683;28;20052;-71
2023/10/22 06:39:59;;;;;;;0.50;0.50;;;;;;;;;;10069000;28;20044;-70
2023/10/22 06:44:51;;;;;;;0.60;0.60;;;;;;;;;;10065282;28;20472;-70
2023/10/22 06:49:43;;;;;;;0.60;0.60;;;;;;;;;;10062328;28;20456;-70
2023/10/22 06:54:35;;;;;;;1.08;1.08;;;;;;;;;;10062135;28;20053;-70
2023/10/22 06:59:28;;;;;;;0.50;0.50;;;;;;;;;;10066578;28;20043;-70
2023/10/22 07:04:20;;;;;;;0.50;0.50;;;;;;;;;;10068851;28;20088;-69
2023/10/22 07:09:12;;;;;;;0.50;0.50;;;;;;;;;;10069564;28;20379;-70
2023/10/22 07:14:05;;;;;;;0.50;0.50;;;;;;;;;;10067530;28;20052;-71
2023/10/22 07:18:56;;;;;;;0.50;0.50;;;;;;;;;;10067849;28;20096;-70
2023/10/22 07:23:48;;;;;;;0.70;0.70;;;;;;;;;;10069090;28;20365;-71
2023/10/22 07:28:44;;;;;;;0.40;0.40;;;;;;;;;;10068191;28;20460;-69
2023/10/22 07:33:35;;;;;;;0.50;0.50;;;;;;;;;;10068902;28;20076;-70
2023/10/22 07:38:32;;;;;;;0.50;0.50;;;;;;;;;;10068526;28;20486;-69
2023/10/22 07:43:27;;;;;;;0.50;0.50;;;;;;;;;;10067919;28;20144;-70
2023/10/22 07:48:19;;;;;;;0.60;0.60;;;;;;;;;;10058313;28;20041;-68
2023/10/22 07:53:11;;;;;;;0.50;0.50;;;;;;;;;;10067146;28;20046;-71
2023/10/22 07:58:03;;;;;;;0.40;0.40;;;;;;;;;;10067167;28;20530;-70
2023/10/22 08:02:57;;;;;;;0.40;0.40;;;;;;;;;;10050714;28;20052;-69
2023/10/22 08:07:49;;;;;;;0.40;0.40;;;;;;;;;;10066937;28;20052;-71
2023/10/22 08:12:41;;;;;;;0.50;0.50;;;;;;;;;;10066995;28;20486;-69
2023/10/22 08:17:33;;;;;;;0.40;0.40;;;;;;;;;;10065418;28;20068;-70
2023/10/22 08:22:24;;;;;;;0.60;0.60;;;;;;;;;;10063288;28;20063;-69
2023/10/22 08:27:16;;;;;;;0.43;0.43;;;;;;;;;;10062446;28;20037;-70
2023/10/22 08:32:08;;;;;;;0.50;0.50;;;;;;;;;;10061025;28;20095;-69
2023/10/22 08:37:00;;;;;;;0.45;0.45;;;;;;;;;;10066373;28;20068;-70
2023/10/22 08:42:01;;;;;;;0.40;0.40;;;;;;;;;;10065053;28;20047;-71
2023/10/22 08:46:53;;;;;;;0.60;0.60;;;;;;;;;;10065484;28;20041;-69
2023/10/22 08:51:45;;;;;;;0.40;0.40;;;;;;;;;;10063802;28;20045;-70
2023/10/22 08:56:37;;;;;;;0.40;0.40;;;;;;;;;;10064567;28;20428;-71
2023/10/22 09:01:29;;;;;;;1.70;1.60;;;;;;;;;;10065054;28;20471;-69
2023/10/22 09:06:22;;;;;;;0.50;0.50;;;;;;;;;;10060237;28;20107;-69
2023/10/22 09:11:15;;;;;;;1.35;1.25;;;;;;;;;;10063585;28;20068;-70
2023/10/22 09:16:08;;;;;;;0.50;0.50;;;;;;;;;;10064572;28;20112;-71
2023/10/22 09:21:06;;;;;;;0.50;0.50;;;;;;;;;;10065240;28;20120;-71
2023/10/22 09:25:58;;;;;;;0.50;0.50;;;;;;;;;;10064454;28;20053;-70
2023/10/22 09:31:04;;;;;;;1.05;1.05;;;;;;;;;;10059180;28;20432;-69
2023/10/22 09:36:00;;;;;;;0.40;0.40;;;;;;;;;;10027558;28;20057;-70
2023/10/22 09:40:53;;;;;;;4.03;1.48;;;;;;;;;;10027073;28;20124;-71
2023/10/22 09:45:45;;;;;;;0.85;0.85;;;;;;;;;;10031883;28;20092;-71
2023/10/22 09:50:44;;;;;;;0.47;0.47;;;;;;;;;;10024843;28;20081;-70
2023/10/22 09:55:39;;;;;;;0.55;0.55;;;;;;;;;;10033433;28;20081;-71
2023/10/22 10:00:34;;;;;;;0.57;0.57;;;;;;;;;;10039777;28;20034;-70
2023/10/22 10:05:41;;;;;;;0.82;0.82;;;;;;;;;;10026914;28;20077;-72
2023/10/22 10:10:33;;;;;;;0.52;0.52;;;;;;;;;;10042002;28;20072;-72
2023/10/22 10:15:35;;;;;;;0.70;0.70;;;;;;;;;;10026516;28;20428;-72
2023/10/22 10:20:30;;;;;;;0.50;0.50;;;;;;;;;;10026524;28;20053;-72
2023/10/22 10:25:29;;;;;;;5.43;2.80;;;;;;;;;;10027938;28;20159;-70
2023/10/22 10:30:22;;;;;;;6.20;4.28;;;;;;;;;;10027327;28;20038;-71
2023/10/22 10:35:14;;;;;;;3.85;3.50;;;;;;;;;;10026937;28;20128;-71
2023/10/22 10:40:07;;;;;;;10.25;2.85;;;;;;;;;;10043546;28;20108;-72
2023/10/22 10:45:00;;;;;;;5.40;2.30;;;;;;;;;;10038041;28;20494;-73
2023/10/22 10:50:12;;;;;;;3.47;1.58;;;;;;;;;;10035255;28;20484;-71
2023/10/22 10:55:08;;;;;;;2.78;1.10;;;;;;;;;;10052428;28;20129;-71
2023/10/22 11:00:00;;;;;;;7.95;3.10;;;;;;;;;;10046514;28;20045;-70
2023/10/22 11:04:52;;;;;;;2.40;1.35;;;;;;;;;;10047267;28;20050;-71
2023/10/22 11:09:44;;;;;;;5.45;2.28;;;;;;;;;;10043257;28;20064;-71
2023/10/22 11:14:37;;;;;;;6.88;1.45;;;;;;;;;;10044208;28;20034;-71
2023/10/22 11:19:30;;;;;;;5.55;1.70;;;;;;;;;;10050006;28;20053;-70
2023/10/22 11:24:31;;;;;;;5.70;2.03;;;;;;;;;;10032045;28;20166;-70
2023/10/22 11:29:23;;;;;;;2.30;1.33;;;;;;;;;;10032448;28;20057;-72
2023/10/22 11:34:15;;;;;;;6.65;1.42;;;;;;;;;;10033032;28;20054;-72
2023/10/22 11:39:20;;;;;;;4.55;1.45;;;;;;;;;;10032918;28;20080;-72
2023/10/22 11:44:35;;;;;;;2.20;1.08;;;;;;;;;;10033521;28;20084;-72
2023/10/22 11:49:28;;;;;;;2.40;1.20;;;;;;;;;;10031479;28;20052;-70
2023/10/22 11:54:37;;;;;;;4.13;1.23;;;;;;;;;;10032195;28;20042;-69
2023/10/22 11:59:29;;;;;;;5.43;1.83;;;;;;;;;;10030964;28;20038;-71
2023/10/22 12:04:22;;;;;;;4.68;1.52;;;;;;;;;;10029744;28;20142;-71
2023/10/22 12:09:14;;;;;;;3.90;1.38;;;;;;;;;;10030436;28;20567;-69
2023/10/22 12:14:06;;;;;;;2.38;1.83;;;;;;;;;;10031001;28;20049;-71
2023/10/22 12:18:57;;;;;;;7.25;1.83;;;;;;;;;;10029969;28;20368;-71
2023/10/22 12:23:49;;;;;;;6.75;1.40;;;;;;;;;;10030763;28;20046;-69
2023/10/22 12:28:41;;;;;;;4.97;1.45;;;;;;;;;;10029989;28;20048;-69
2023/10/22 12:33:33;;;;;;;7.07;1.45;;;;;;;;;;10030252;28;20128;-71
2023/10/22 12:38:25;;;;;;;6.55;1.50;;;;;;;;;;10029434;28;20042;-71
2023/10/22 12:43:17;;;;;;;1.90;1.05;;;;;;;;;;10027677;28;20038;-73
2023/10/22 12:48:09;;;;;;;2.90;1.48;;;;;;;;;;10027057;28;20109;-72
2023/10/22 12:53:02;;;;;;;2.53;1.10;;;;;;;;;;10027399;28;20352;-72
2023/10/22 12:57:53;;;;;;;2.35;1.20;;;;;;;;;;10026216;28;20053;-73
2023/10/22 13:02:45;;;;;;;1.95;1.13;;;;;;;;;;10026763;28;20052;-71
2023/10/22 13:07:37;;;;;;;3.40;1.20;;;;;;;;;;10027060;28;20055;-73
2023/10/22 13:12:29;;;;;;;2.17;1.20;;;;;;;;;;10026908;28;20050;-72
2023/10/22 13:17:21;;;;;;;2.40;1.42;;;;;;;;;;10025702;28;20045;-72
2023/10/22 13:22:12;;;;;;;8.68;2.38;;;;;;;;;;10038474;28;20038;-73
2023/10/22 13:27:04;;;;;;;2.63;1.35;;;;;;;;;;10034269;28;20366;-73
2023/10/22 13:31:56;;;;;;;4.40;1.98;;;;;;;;;;10041665;28;20041;-71
2023/10/22 13:36:48;;;;;;;6.88;2.15;;;;;;;;;;10025204;28;20556;-73
2023/10/22 13:41:43;;;;;;;8.02;3.38;;;;;;;;;;10027294;28;20038;-74
2023/10/22 13:46:35;;;;;;;7.25;2.47;;;;;;;;;;10023712;28;20073;-73
2023/10/22 13:51:27;;;;;;;5.18;3.92;;;;;;;;;;10026306;28;20049;-74
2023/10/22 13:56:19;;;;;;;9.02;2.63;;;;;;;;;;10025293;28;20078;-74
2023/10/22 14:01:11;;;;;;;4.88;3.50;;;;;;;;;;10025288;28;20759;-73
2023/10/22 14:06:03;;;;;;;8.98;4.93;;;;;;;;;;10025865;28;20053;-74
2023/10/22 14:10:55;;;;;;;4.43;4.00;;;;;;;;;;10024451;28;20149;-73
2023/10/22 14:15:48;;;;;;;5.97;3.28;;;;;;;;;;10024845;28;20042;-74
2023/10/22 14:20:41;;;;;;;8.88;3.85;;;;;;;;;;10025239;28;20052;-74
2023/10/22 14:25:33;;;;;;;5.32;3.58;;;;;;;;;;10024863;28;20380;-74
2023/10/22 14:30:25;;;;;;;3.75;2.45;;;;;;;;;;10029257;28;20419;-72
2023/10/22 14:35:17;;;;;;;3.05;1.83;;;;;;;;;;10032384;28;20440;-73
2023/10/22 14:40:09;;;;;;;3.67;1.25;;;;;;;;;;10033075;28;20535;-73
2023/10/22 14:45:01;;;;;;;3.63;2.72;;;;;;;;;;10031546;28;20088;-73
2023/10/22 14:49:53;;;;;;;4.75;1.08;;;;;;;;;;10032597;28;20133;-73
2023/10/22 14:54:45;;;;;;;4.30;1.50;;;;;;;;;;10031285;28;20074;-73
2023/10/22 14:59:37;;;;;;;3.65;2.58;;;;;;;;;;10031934;28;20471;-74
2023/10/22 15:04:29;;;;;;;1.75;1.10;;;;;;;;;;10032666;28;20050;-72
2023/10/22 15:09:21;;;;;;;4.18;2.05;;;;;;;;;;10045686;28;20152;-72
2023/10/22 15:14:14;;;;;;;5.80;2.28;;;;;;;;;;10032546;28;20072;-74
2023/10/22 15:19:07;;;;;;;1.80;1.10;;;;;;;;;;10031096;28;20480;-74
2023/10/22 15:23:59;;;;;;;15.57;3.80;;;;;;;;;;10030835;28;20089;-74
2023/10/22 15:28:52;;;;;;;2.05;0.80;;;;;;;;;;10029463;28;20046;-75
2023/10/22 15:33:43;;;;;;;2.40;0.80;;;;;;;;;;10031780;28;20117;-68
2023/10/22 15:38:35;;;;;;;1.92;1.02;;;;;;;;;;10029360;28;20038;-67
2023/10/22 15:43:27;;;;;;;4.72;1.13;;;;;;;;;;10028729;28;20077;-67
2023/10/22 15:48:23;;;;;;;3.88;1.35;;;;;;;;;;10028965;28;20042;-68
2023/10/22 15:53:17;;;;;;;2.53;1.10;;;;;;;;;;10029205;28;20492;-68
2023/10/22 15:58:09;;;;;;;4.60;1.33;;;;;;;;;;10029548;28;20168;-68
2023/10/22 16:03:01;;;;;;;2.00;1.20;;;;;;;;;;10028680;28;20054;-67
2023/10/22 16:07:53;;;;;;;2.08;1.10;;;;;;;;;;10031251;28;20050;-67
2023/10/22 16:12:45;;;;;;;6.72;2.10;;;;;;;;;;10029141;28;20058;-66
2023/10/22 16:17:40;;;;;;;1.65;1.02;;;;;;;;;;10027552;28;20107;-67
2023/10/22 16:22:32;;;;;;;2.80;1.08;;;;;;;;;;10028329;28;20383;-67
2023/10/22 16:27:24;;;;;;;2.22;1.10;;;;;;;;;;10027696;28;20096;-66
2023/10/22 16:32:16;;;;;;;2.50;1.15;;;;;;;;;;10028531;28;20056;-67
2023/10/22 16:37:08;;;;;;;1.08;0.90;;;;;;;;;;10028693;28;20054;-67
2023/10/22 16:41:59;;;;;;;4.25;2.10;;;;;;;;;;10026993;28;20125;-68
2023/10/22 16:46:52;;;;;;;1.75;1.08;;;;;;;;;;10028840;28;20046;-68
2023/10/22 16:51:44;;;;;;;3.35;1.40;;;;;;;;;;10026880;28;20159;-66
2023/10/22 16:56:35;;;;;;;1.90;0.93;;;;;;;;;;10025624;28;20050;-67
2023/10/22 17:01:27;;;;;;;2.67;1.00;;;;;;;;;;10026048;28;20038;-71
2023/10/22 17:06:19;;;;;;;1.33;1.00;;;;;;;;;;10035871;28;20041;-73
2023/10/22 17:11:12;;;;;;;2.70;0.93;;;;;;;;;;10026070;28;20392;-73
2023/10/22 17:16:04;;;;;;;1.75;1.00;;;;;;;;;;10027475;28;20072;-73
2023/10/22 17:20:56;;;;;;;3.55;1.27;;;;;;;;;;10024696;28;20356;-73
2023/10/22 17:25:49;;;;;;;1.73;1.27;;;;;;;;;;10026957;28;20042;-72
2023/10/22 17:30:41;;;;;;;5.88;1.08;;;;;;;;;;10031437;28;20125;-72
2023/10/22 17:35:33;;;;;;;2.75;1.50;;;;;;;;;;10033370;28;20045;-71
2023/10/22 17:40:25;;;;;;;5.00;1.30;;;;;;;;;;10033763;28;20530;-71
2023/10/22 17:45:17;;;;;;;2.97;1.25;;;;;;;;;;10033513;28;20531;-72
2023/10/22 17:50:10;;;;;;;2.08;1.00;;;;;;;;;;10045902;28;20084;-72
2023/10/22 17:55:03;;;;;;;5.75;1.58;;;;;;;;;;10038483;28;20073;-70
2023/10/22 17:59:58;;;;;;;3.22;1.00;;;;;;;;;;10038313;28;20046;-72
2023/10/22 18:04:50;;;;;;;2.47;1.17;;;;;;;;;;10038818;28;20368;-72
2023/10/22 18:09:42;;;;;;;1.55;1.45;;;;;;;;;;10044544;28;20045;-71
2023/10/22 18:14:34;;;;;;;3.03;1.17;;;;;;;;;;10049521;28;20038;-71
2023/10/22 18:19:26;;;;;;;2.97;1.50;;;;;;;;;;10036069;28;20490;-72
2023/10/22 18:24:32;;;;;;;4.07;1.70;;;;;;;;;;10041888;28;20107;-71
2023/10/22 18:29:24;;;;;;;2.33;1.50;;;;;;;;;;10038050;28;20376;-72
2023/10/22 18:34:16;;;;;;;3.22;2.28;;;;;;;;;;10048392;28;20144;-72
2023/10/22 18:39:07;;;;;;;2.58;1.50;;;;;;;;;;10034492;28;20542;-72
2023/10/22 18:44:00;;;;;;;1.60;1.10;;;;;;;;;;10033495;28;20061;-71
2023/10/22 18:48:53;;;;;;;4.05;1.17;;;;;;;;;;10049598;28;20452;-72
2023/10/22 18:53:46;;;;;;;3.50;1.10;;;;;;;;;;10048884;28;20052;-71
2023/10/22 18:58:41;;;;;;;4.03;1.40;;;;;;;;;;10048713;28;20422;-71
2023/10/22 19:03:33;;;;;;;5.72;1.80;;;;;;;;;;10032538;28;20077;-70
2023/10/22 19:08:25;;;;;;;3.97;1.48;;;;;;;;;;10043186;28;20034;-71
2023/10/22 19:13:17;;;;;;;5.20;1.40;;;;;;;;;;10040072;28;20091;-71
2023/10/22 19:18:09;;;;;;;6.18;2.40;;;;;;;;;;10031587;28;20084;-69
2023/10/22 19:23:06;;;;;;;5.47;2.78;;;;;;;;;;10044890;28;20120;-74
2023/10/22 19:27:58;;;;;;;4.90;3.45;;;;;;;;;;10030937;28;20375;-71
2023/10/22 19:32:51;;;;;;;9.73;5.43;;;;;;;;;;10031605;28;20076;-70
2023/10/22 19:37:44;;;;;;;4.22;2.70;;;;;;;;;;10034413;28;20045;-71
2023/10/22 19:42:36;;;;;;;6.68;2.45;;;;;;;;;;10033751;28;20049;-71
2023/10/22 19:47:28;;;;;;;5.13;2.35;;;;;;;;;;10039353;28;20054;-71
2023/10/22 19:52:20;;;;;;;2.28;1.40;;;;;;;;;;10031375;28;20051;-71
2023/10/22 19:57:30;;;;;;;1.13;1.02;;;;;;;;;;10030341;28;20072;-72
2023/10/22 20:02:23;;;;;;;1.33;1.10;;;;;;;;;;10036818;28;20050;-72
2023/10/22 20:07:15;;;;;;;3.47;2.33;;;;;;;;;;10028644;28;20546;-71
2023/10/22 20:12:07;;;;;;;3.25;1.20;;;;;;;;;;10028910;28;20046;-72
2023/10/22 20:17:02;;;;;;;1.95;1.17;;;;;;;;;;10026281;28;20445;-71
2023/10/22 20:21:54;;;;;;;2.97;1.08;;;;;;;;;;10024729;28;20497;-73
2023/10/22 20:26:46;;;;;;;4.47;1.40;;;;;;;;;;10039994;28;20053;-72
2023/10/22 20:31:38;;;;;;;1.90;1.30;;;;;;;;;;10058003;28;20047;-71
2023/10/22 20:36:30;;;;;;;1.90;1.20;;;;;;;;;;10059438;28;20051;-71
2023/10/22 20:41:22;;;;;;;2.92;2.25;;;;;;;;;;10057248;28;20379;-74
2023/10/22 20:46:16;;;;;;;1.40;1.30;;;;;;;;;;10060323;28;20042;-73
2023/10/22 20:51:12;;;;;;;6.68;1.73;;;;;;;;;;10063240;28;20148;-74
2023/10/22 20:56:06;;;;;;;1.80;1.02;;;;;;;;;;10062102;28;20107;-72
2023/10/22 21:01:01;;;;;;;4.70;1.08;;;;;;;;;;10058012;28;20073;-71
2023/10/22 21:05:54;;;;;;;3.28;1.45;;;;;;;;;;10056393;28;20054;-73
2023/10/22 21:10:46;;;;;;;2.90;1.10;;;;;;;;;;10061763;28;20460;-73
2023/10/22 21:15:37;;;;;;;3.40;1.63;;;;;;;;;;10060050;28;20049;-76
2023/10/22 21:20:29;;;;;;;1.55;1.20;;;;;;;;;;10060082;28;20132;-75
2023/10/22 21:25:22;;;;;;;1.67;1.08;;;;;;;;;;10037484;28;20735;-75
2023/10/22 21:30:14;;;;;;;3.65;1.23;;;;;;;;;;10065012;28;21348;-73
2023/10/22 21:35:07;;;;;;;1.88;1.10;;;;;;;;;;10085245;28;20057;-71
2023/10/22 21:40:04;;;;;;;1.40;1.30;;;;;;;;;;10051609;28;20046;-74
2023/10/22 21:44:56;;;;;;;1.70;1.35;;;;;;;;;;10061498;28;20045;-75
2023/10/22 21:49:47;;;;;;;4.82;1.25;;;;;;;;;;10064138;28;20042;-75
2023/10/22 21:54:39;;;;;;;3.53;1.10;;;;;;;;;;10063617;28;20037;-75
2023/10/22 21:59:32;;;;;;;1.67;1.20;;;;;;;;;;10064332;28;20391;-73
2023/10/22 22:04:24;;;;;;;4.20;1.13;;;;;;;;;;10063841;28;20063;-73
2023/10/22 22:09:16;;;;;;;1.75;1.10;;;;;;;;;;10064436;28;20120;-75
2023/10/22 22:14:08;;;;;;;2.53;2.17;;;;;;;;;;10064480;28;20037;-75
2023/10/22 22:19:00;;;;;;;3.33;1.42;;;;;;;;;;10062483;28;20386;-74
2023/10/22 22:23:52;;;;;;;2.40;1.25;;;;;;;;;;10063894;28;20100;-74
2023/10/22 22:28:44;;;;;;;3.00;1.08;;;;;;;;;;10064619;28;20131;-73
2023/10/22 22:33:35;;;;;;;3.08;1.02;;;;;;;;;;10063097;28;20053;-74
2023/10/22 22:38:27;;;;;;;1.50;1.40;;;;;;;;;;10063567;28;20050;-74
2023/10/22 22:43:19;;;;;;;3.95;1.63;;;;;;;;;;10063826;28;20060;-75
2023/10/22 22:48:11;;;;;;;2.10;1.25;;;;;;;;;;10063544;28;20053;-72
2023/10/22 22:53:03;;;;;;;2.67;0.98;;;;;;;;;;10069867;28;20052;-73
2023/10/22 22:57:55;;;;;;;1.83;0.93;;;;;;;;;;10069718;28;20467;-73
2023/10/22 23:02:47;;;;;;;1.15;1.10;;;;;;;;;;10068635;28;20542;-73
2023/10/22 23:07:39;;;;;;;3.67;1.30;;;;;;;;;;10069831;28;20460;-74
2023/10/22 23:12:31;;;;;;;3.00;1.38;;;;;;;;;;10070146;28;20368;-73
2023/10/22 23:17:24;;;;;;;3.20;1.10;;;;;;;;;;10068546;28;20076;-72
2023/10/22 23:22:16;;;;;;;1.98;1.00;;;;;;;;;;10069425;28;20042;-75
2023/10/22 23:27:08;;;;;;;2.85;1.20;;;;;;;;;;10069152;28;20045;-76
2023/10/22 23:31:59;;;;;;;0.80;0.80;;;;;;;;;;10069117;28;20049;-76
2023/10/22 23:36:51;;;;;;;1.25;1.00;;;;;;;;;;10069427;28;20532;-73
2023/10/22 23:41:43;;;;;;;0.88;0.88;;;;;;;;;;10068338;28;20053;-73
2023/10/22 23:46:35;;;;;;;4.25;1.35;;;;;;;;;;10068388;28;20041;-75
2023/10/22 23:51:27;;;;;;;3.45;1.20;;;;;;;;;;10068978;28;20053;-75
2023/10/22 23:56:19;;;;;;;1.55;1.15;;;;;;;;;;10068116;28;20065;-76
